createdAt,value
2018-08-30T00:00:31.227Z,0.00
2018-08-30T00:01:31.191Z,0.00
2018-08-30T00:02:31.156Z,0.00
2018-08-30T00:03:31.118Z,0.00
2018-08-30T00:04:31.096Z,0.00
2018-08-30T00:05:31.038Z,0.00
2018-08-30T00:06:30.997Z,0.00
2018-08-30T00:07:30.957Z,0.00
2018-08-30T00:08:30.927Z,0.00
2018-08-30T00:09:30.915Z,0.00
2018-08-30T00:10:30.848Z,0.00
2018-08-30T00:11:30.810Z,0.00
2018-08-30T00:12:30.765Z,0.00
2018-08-30T00:13:30.726Z,0.00
2018-08-30T00:14:30.686Z,0.00
2018-08-30T00:15:30.671Z,0.00
2018-08-30T00:16:30.629Z,0.00
2018-08-30T00:17:30.579Z,0.00
2018-08-30T00:18:30.530Z,0.00
2018-08-30T00:19:30.497Z,0.00
2018-08-30T00:20:30.484Z,0.00
2018-08-30T00:21:30.425Z,0.00
2018-08-30T00:22:30.381Z,0.00
2018-08-30T00:23:30.345Z,0.00
2018-08-30T00:24:30.301Z,0.00
2018-08-30T00:25:30.290Z,0.00
2018-08-30T00:26:30.221Z,0.00
2018-08-30T00:27:30.184Z,0.00
2018-08-30T00:28:30.153Z,0.00
2018-08-30T00:29:30.117Z,0.00
2018-08-30T00:30:30.078Z,0.00
2018-08-30T00:31:30.056Z,0.00
2018-08-30T00:32:29.990Z,0.00
2018-08-30T00:33:29.951Z,0.00
2018-08-30T00:34:29.919Z,0.00
2018-08-30T00:35:29.880Z,0.00
2018-08-30T00:36:29.857Z,0.00
2018-08-30T00:37:29.795Z,0.00
2018-08-30T00:38:29.757Z,0.00
2018-08-30T00:39:29.716Z,0.00
2018-08-30T00:40:29.688Z,0.00
2018-08-30T00:41:29.730Z,0.00
2018-08-30T00:42:29.610Z,0.00
2018-08-30T00:43:29.571Z,0.00
2018-08-30T00:44:29.529Z,0.00
2018-08-30T00:45:29.483Z,0.00
2018-08-30T00:46:29.471Z,0.00
2018-08-30T00:47:29.406Z,0.00
2018-08-30T00:48:29.376Z,0.00
2018-08-30T00:49:29.335Z,0.00
2018-08-30T00:50:29.290Z,0.00
2018-08-30T00:51:29.252Z,0.00
2018-08-30T00:52:29.242Z,0.00
2018-08-30T00:53:29.181Z,0.00
2018-08-30T00:54:29.152Z,0.00
2018-08-30T00:55:29.103Z,0.00
2018-08-30T00:56:29.059Z,0.00
2018-08-30T00:57:29.044Z,0.00
2018-08-30T00:58:28.985Z,0.00
2018-08-30T00:59:28.942Z,0.00
2018-08-30T01:00:28.914Z,0.00
2018-08-30T01:01:28.872Z,0.00
2018-08-30T01:02:28.832Z,0.00
2018-08-30T01:03:28.815Z,0.00
2018-08-30T01:04:28.747Z,0.00
2018-08-30T01:05:28.711Z,0.00
2018-08-30T01:06:28.677Z,0.00
2018-08-30T01:07:28.637Z,0.00
2018-08-30T01:08:28.615Z,0.00
2018-08-30T01:09:38.950Z,0.00
2018-08-30T01:10:28.525Z,0.00
2018-08-30T01:11:28.483Z,0.00
2018-08-30T01:12:28.443Z,0.00
2018-08-30T01:13:28.428Z,0.00
2018-08-30T01:14:28.361Z,0.00
2018-08-30T01:15:28.320Z,0.00
2018-08-30T01:16:28.281Z,0.00
2018-08-30T01:17:28.246Z,0.00
2018-08-30T01:18:28.231Z,0.00
2018-08-30T01:19:28.172Z,0.00
2018-08-30T01:20:28.130Z,0.00
2018-08-30T01:21:28.090Z,0.00
2018-08-30T01:22:28.055Z,0.00
2018-08-30T01:23:28.042Z,0.00
2018-08-30T01:24:27.979Z,0.00
2018-08-30T01:25:27.941Z,0.00
2018-08-30T01:26:27.895Z,0.00
2018-08-30T01:27:27.856Z,0.00
2018-08-30T01:28:27.847Z,0.00
2018-08-30T01:29:38.992Z,0.00
2018-08-30T01:30:27.747Z,0.00
2018-08-30T01:31:27.710Z,0.00
2018-08-30T01:32:27.665Z,0.00
2018-08-30T01:33:27.623Z,0.00
2018-08-30T01:34:27.616Z,0.00
2018-08-30T01:35:27.552Z,0.00
2018-08-30T01:36:27.509Z,0.00
2018-08-30T01:37:27.470Z,0.00
2018-08-30T01:38:27.437Z,0.00
2018-08-30T01:39:27.413Z,0.00
2018-08-30T01:40:27.359Z,0.00
2018-08-30T01:41:27.319Z,0.00
2018-08-30T01:42:27.281Z,0.00
2018-08-30T01:43:27.245Z,0.00
2018-08-30T01:44:27.219Z,0.00
2018-08-30T01:45:27.159Z,0.00
2018-08-30T01:46:27.122Z,0.00
2018-08-30T01:47:27.084Z,0.00
2018-08-30T01:48:37.047Z,0.00
2018-08-30T01:49:27.005Z,0.00
2018-08-30T01:50:26.974Z,0.00
2018-08-30T01:51:26.939Z,0.00
2018-08-30T01:52:26.894Z,0.00
2018-08-30T01:53:26.857Z,0.00
2018-08-30T01:54:26.834Z,0.00
2018-08-30T01:55:26.773Z,0.00
2018-08-30T01:56:26.737Z,0.00
2018-08-30T01:57:26.699Z,0.00
2018-08-30T01:58:26.661Z,0.00
2018-08-30T01:59:26.645Z,0.00
2018-08-30T02:00:26.586Z,0.00
2018-08-30T02:01:26.549Z,0.00
2018-08-30T02:02:26.502Z,0.00
2018-08-30T02:03:26.463Z,0.00
2018-08-30T02:04:26.456Z,0.00
2018-08-30T02:05:26.395Z,0.00
2018-08-30T02:06:26.348Z,0.00
2018-08-30T02:07:36.577Z,0.00
2018-08-30T02:08:26.278Z,0.00
2018-08-30T02:09:26.264Z,0.00
2018-08-30T02:10:26.199Z,0.00
2018-08-30T02:11:26.163Z,0.00
2018-08-30T02:12:26.116Z,0.00
2018-08-30T02:13:26.078Z,0.00
2018-08-30T02:14:26.041Z,0.00
2018-08-30T02:15:26.024Z,0.00
2018-08-30T02:16:25.977Z,0.00
2018-08-30T02:17:25.932Z,0.00
2018-08-30T02:18:25.884Z,0.00
2018-08-30T02:19:25.846Z,0.00
2018-08-30T02:20:25.847Z,0.00
2018-08-30T02:21:25.777Z,0.00
2018-08-30T02:22:25.734Z,0.00
2018-08-30T02:23:25.700Z,0.00
2018-08-30T02:24:25.654Z,0.00
2018-08-30T02:25:25.638Z,0.00
2018-08-30T02:26:25.579Z,0.00
2018-08-30T02:27:35.623Z,0.00
2018-08-30T02:28:25.509Z,0.00
2018-08-30T02:29:25.468Z,0.00
2018-08-30T02:30:25.455Z,0.00
2018-08-30T02:31:25.382Z,0.00
2018-08-30T02:32:25.350Z,0.00
2018-08-30T02:33:25.317Z,0.00
2018-08-30T02:34:25.266Z,0.00
2018-08-30T02:35:25.228Z,0.00
2018-08-30T02:36:25.215Z,0.00
2018-08-30T02:37:25.153Z,0.00
2018-08-30T02:38:25.120Z,0.00
2018-08-30T02:39:25.082Z,0.00
2018-08-30T02:40:25.043Z,0.00
2018-08-30T02:41:25.030Z,0.00
2018-08-30T02:42:24.960Z,0.00
2018-08-30T02:43:24.921Z,0.00
2018-08-30T02:44:24.883Z,0.00
2018-08-30T02:45:24.843Z,0.00
2018-08-30T02:46:24.838Z,0.00
2018-08-30T02:47:24.774Z,0.00
2018-08-30T02:48:24.727Z,0.00
2018-08-30T02:49:24.690Z,0.00
2018-08-30T02:50:24.657Z,0.00
2018-08-30T02:51:24.620Z,0.00
2018-08-30T02:52:24.605Z,0.00
2018-08-30T02:53:24.545Z,0.00
2018-08-30T02:54:24.498Z,0.00
2018-08-30T02:55:24.457Z,0.00
2018-08-30T02:56:24.419Z,0.00
2018-08-30T02:57:24.404Z,0.00
2018-08-30T02:58:24.351Z,0.00
2018-08-30T02:59:24.310Z,0.00
2018-08-30T03:00:24.276Z,0.00
2018-08-30T03:01:24.231Z,0.00
2018-08-30T03:02:24.212Z,0.00
2018-08-30T03:03:24.148Z,0.00
2018-08-30T03:04:24.122Z,0.00
2018-08-30T03:05:24.081Z,0.00
2018-08-30T03:06:24.040Z,0.00
2018-08-30T03:07:33.682Z,0.00
2018-08-30T03:08:23.964Z,0.00
2018-08-30T03:09:23.927Z,0.00
2018-08-30T03:10:23.891Z,0.00
2018-08-30T03:11:23.847Z,0.00
2018-08-30T03:12:23.803Z,0.00
2018-08-30T03:13:23.787Z,0.00
2018-08-30T03:14:23.725Z,0.00
2018-08-30T03:15:23.689Z,0.00
2018-08-30T03:16:23.657Z,0.00
2018-08-30T03:17:23.638Z,0.00
2018-08-30T03:18:23.572Z,0.00
2018-08-30T03:19:23.532Z,0.00
2018-08-30T03:20:23.499Z,0.00
2018-08-30T03:21:23.462Z,0.00
2018-08-30T03:22:23.444Z,0.00
2018-08-30T03:23:23.384Z,0.00
2018-08-30T03:24:23.340Z,0.00
2018-08-30T03:25:23.300Z,0.00
2018-08-30T03:26:33.704Z,0.00
2018-08-30T03:27:23.259Z,0.00
2018-08-30T03:28:23.193Z,0.00
2018-08-30T03:29:23.156Z,0.00
2018-08-30T03:30:23.144Z,0.00
2018-08-30T03:31:23.068Z,0.00
2018-08-30T03:32:23.043Z,0.00
2018-08-30T03:33:23.023Z,0.00
2018-08-30T03:34:22.955Z,0.00
2018-08-30T03:35:22.918Z,0.00
2018-08-30T03:36:22.877Z,0.00
2018-08-30T03:37:22.837Z,0.00
2018-08-30T03:38:22.827Z,0.00
2018-08-30T03:39:22.769Z,0.00
2018-08-30T03:40:22.730Z,0.00
2018-08-30T03:41:22.690Z,0.00
2018-08-30T03:42:22.645Z,0.00
2018-08-30T03:43:22.630Z,0.00
2018-08-30T03:44:22.568Z,0.00
2018-08-30T03:45:22.528Z,0.00
2018-08-30T03:46:32.742Z,0.00
2018-08-30T03:47:22.451Z,0.00
2018-08-30T03:48:22.448Z,0.00
2018-08-30T03:49:22.385Z,0.00
2018-08-30T03:50:22.343Z,0.00
2018-08-30T03:51:22.307Z,0.00
2018-08-30T03:52:22.261Z,0.00
2018-08-30T03:53:22.222Z,0.00
2018-08-30T03:54:22.205Z,0.00
2018-08-30T03:55:22.147Z,0.00
2018-08-30T03:56:22.117Z,0.00
2018-08-30T03:57:22.074Z,0.00
2018-08-30T03:58:22.036Z,0.00
2018-08-30T03:59:22.023Z,0.00
2018-08-30T04:00:21.954Z,0.00
2018-08-30T04:01:21.915Z,0.00
2018-08-30T04:02:21.882Z,0.00
2018-08-30T04:03:21.844Z,0.00
2018-08-30T04:04:21.815Z,0.00
2018-08-30T04:05:32.303Z,0.00
2018-08-30T04:06:21.726Z,0.00
2018-08-30T04:07:21.691Z,0.00
2018-08-30T04:08:21.654Z,0.00
2018-08-30T04:09:21.612Z,0.00
2018-08-30T04:10:21.590Z,0.00
2018-08-30T04:11:21.531Z,0.00
2018-08-30T04:12:21.492Z,0.00
2018-08-30T04:13:21.489Z,0.00
2018-08-30T04:14:21.422Z,0.00
2018-08-30T04:15:21.408Z,4.00
2018-08-30T04:16:21.339Z,4.00
2018-08-30T04:17:21.299Z,4.00
2018-08-30T04:18:21.266Z,8.00
2018-08-30T04:19:21.230Z,4.00
2018-08-30T04:20:21.190Z,8.00
2018-08-30T04:21:21.174Z,8.00
2018-08-30T04:22:21.107Z,8.00
2018-08-30T04:23:21.069Z,12.00
2018-08-30T04:24:21.031Z,12.00
2018-08-30T04:25:32.332Z,16.00
2018-08-30T04:26:20.980Z,12.00
2018-08-30T04:27:20.920Z,12.00
2018-08-30T04:28:20.875Z,16.00
2018-08-30T04:29:20.843Z,20.00
2018-08-30T04:30:20.813Z,24.00
2018-08-30T04:31:20.812Z,20.00
2018-08-30T04:32:20.720Z,24.00
2018-08-30T04:33:20.708Z,28.00
2018-08-30T04:34:20.643Z,32.00
2018-08-30T04:35:20.605Z,36.00
2018-08-30T04:36:20.599Z,48.00
2018-08-30T04:37:20.538Z,44.00
2018-08-30T04:38:20.496Z,52.00
2018-08-30T04:39:20.460Z,72.00
2018-08-30T04:40:20.415Z,96.00
2018-08-30T04:41:20.376Z,104.00
2018-08-30T04:42:20.393Z,96.00
2018-08-30T04:43:20.298Z,88.00
2018-08-30T04:44:20.264Z,76.00
2018-08-30T04:45:30.369Z,96.00
2018-08-30T04:46:20.189Z,124.00
2018-08-30T04:47:20.175Z,136.00
2018-08-30T04:48:20.116Z,140.00
2018-08-30T04:49:20.074Z,116.00
2018-08-30T04:50:20.082Z,140.00
2018-08-30T04:51:19.989Z,148.00
2018-08-30T04:52:19.984Z,164.00
2018-08-30T04:53:19.916Z,180.00
2018-08-30T04:54:19.889Z,196.00
2018-08-30T04:55:19.843Z,216.00
2018-08-30T04:56:19.804Z,204.00
2018-08-30T04:57:19.769Z,288.00
2018-08-30T04:58:19.745Z,372.00
2018-08-30T04:59:19.684Z,280.00
2018-08-30T05:00:19.652Z,244.00
2018-08-30T05:01:19.615Z,356.00
2018-08-30T05:02:19.569Z,352.00
2018-08-30T05:03:19.550Z,412.00
2018-08-30T05:04:19.490Z,376.00
2018-08-30T05:05:29.915Z,308.00
2018-08-30T05:06:19.422Z,316.00
2018-08-30T05:07:19.382Z,420.00
2018-08-30T05:08:19.358Z,620.00
2018-08-30T05:09:19.299Z,640.00
2018-08-30T05:10:19.253Z,820.00
2018-08-30T05:11:19.224Z,788.00
2018-08-30T05:12:19.197Z,692.00
2018-08-30T05:13:19.177Z,588.00
2018-08-30T05:14:19.106Z,528.00
2018-08-30T05:15:19.070Z,464.00
2018-08-30T05:16:19.038Z,412.00
2018-08-30T05:17:18.996Z,556.00
2018-08-30T05:18:18.985Z,760.00
2018-08-30T05:19:18.931Z,676.00
2018-08-30T05:20:18.874Z,556.00
2018-08-30T05:21:18.839Z,468.00
2018-08-30T05:22:18.800Z,720.00
2018-08-30T05:23:18.760Z,992.00
2018-08-30T05:24:18.752Z,1472.00
2018-08-30T05:25:28.945Z,1544.00
2018-08-30T05:26:28.997Z,1664.00
2018-08-30T05:27:18.616Z,1652.00
2018-08-30T05:28:18.566Z,1728.00
2018-08-30T05:29:18.554Z,1984.00
2018-08-30T05:30:18.494Z,2160.00
2018-08-30T05:31:18.452Z,2328.00
2018-08-30T05:32:18.419Z,2616.00
2018-08-30T05:33:18.384Z,2692.00
2018-08-30T05:34:18.367Z,2576.00
2018-08-30T05:35:18.303Z,2420.00
2018-08-30T05:36:18.263Z,2444.00
2018-08-30T05:37:18.224Z,2348.00
2018-08-30T05:38:18.184Z,1808.00
2018-08-30T05:39:18.177Z,1500.00
2018-08-30T05:40:18.116Z,1336.00
2018-08-30T05:41:18.077Z,1924.00
2018-08-30T05:42:18.032Z,2120.00
2018-08-30T05:43:17.993Z,2684.00
2018-08-30T05:44:17.960Z,2492.00
2018-08-30T05:45:17.948Z,2320.00
2018-08-30T05:46:28.013Z,2124.00
2018-08-30T05:47:17.839Z,2152.00
2018-08-30T05:48:17.803Z,1944.00
2018-08-30T05:49:17.766Z,1716.00
2018-08-30T05:50:17.759Z,2372.00
2018-08-30T05:51:17.698Z,1996.00
2018-08-30T05:52:17.657Z,2152.00
2018-08-30T05:53:17.618Z,2224.00
2018-08-30T05:54:17.573Z,2216.00
2018-08-30T05:55:17.535Z,2352.00
2018-08-30T05:56:17.525Z,1824.00
2018-08-30T05:57:17.467Z,1632.00
2018-08-30T05:58:17.422Z,1344.00
2018-08-30T05:59:17.382Z,1432.00
2018-08-30T06:00:17.369Z,1572.00
2018-08-30T06:01:17.305Z,2068.00
2018-08-30T06:02:17.275Z,2220.00
2018-08-30T06:03:17.238Z,2164.00
2018-08-30T06:04:17.199Z,2296.00
2018-08-30T06:05:17.192Z,2264.00
2018-08-30T06:06:17.118Z,2856.00
2018-08-30T06:07:17.132Z,2388.00
2018-08-30T06:08:17.073Z,2468.00
2018-08-30T06:09:17.000Z,2828.00
2018-08-30T06:10:16.969Z,3240.00
2018-08-30T06:11:17.072Z,3720.00
2018-08-30T06:12:16.890Z,3560.00
2018-08-30T06:13:16.852Z,3544.00
2018-08-30T06:14:16.822Z,3504.00
2018-08-30T06:15:16.782Z,3696.00
2018-08-30T06:16:16.771Z,3620.00
2018-08-30T06:17:16.701Z,3664.00
2018-08-30T06:18:16.662Z,3592.00
2018-08-30T06:19:16.623Z,3848.00
2018-08-30T06:20:16.585Z,4004.00
2018-08-30T06:21:16.568Z,4156.00
2018-08-30T06:22:16.513Z,3252.00
2018-08-30T06:23:16.478Z,3336.00
2018-08-30T06:24:16.440Z,3452.00
2018-08-30T06:25:16.445Z,3760.00
2018-08-30T06:26:25.087Z,3200.00
2018-08-30T06:27:16.329Z,3700.00
2018-08-30T06:28:16.280Z,4044.00
2018-08-30T06:29:16.302Z,3936.00
2018-08-30T06:30:16.204Z,3612.00
2018-08-30T06:31:16.167Z,3612.00
2018-08-30T06:32:16.161Z,3740.00
2018-08-30T06:33:16.097Z,4104.00
2018-08-30T06:34:16.060Z,3836.00
2018-08-30T06:35:16.025Z,3392.00
2018-08-30T06:36:15.978Z,4708.00
2018-08-30T06:37:25.636Z,4272.00
2018-08-30T06:38:15.907Z,5284.00
2018-08-30T06:39:15.871Z,6056.00
2018-08-30T06:40:15.826Z,5752.00
2018-08-30T06:41:15.791Z,4796.00
2018-08-30T06:42:15.787Z,5412.00
2018-08-30T06:43:15.721Z,5992.00
2018-08-30T06:44:15.683Z,8596.00
2018-08-30T06:45:26.184Z,9352.00
2018-08-30T06:46:15.601Z,8260.00
2018-08-30T06:47:15.569Z,7984.00
2018-08-30T06:48:15.555Z,7544.00
2018-08-30T06:49:15.495Z,7332.00
2018-08-30T06:50:15.457Z,7880.00
2018-08-30T06:51:15.421Z,9520.00
2018-08-30T06:52:15.376Z,11472.00
2018-08-30T06:53:15.365Z,10784.00
2018-08-30T06:54:15.313Z,10448.00
2018-08-30T06:55:15.273Z,9568.00
2018-08-30T06:56:15.237Z,12124.00
2018-08-30T06:57:15.195Z,13224.00
2018-08-30T06:58:15.186Z,13092.00
2018-08-30T06:59:15.114Z,8472.00
2018-08-30T07:00:15.084Z,6488.00
2018-08-30T07:01:15.053Z,6016.00
2018-08-30T07:02:15.019Z,4188.00
2018-08-30T07:03:14.980Z,2484.00
2018-08-30T07:04:15.017Z,2540.00
2018-08-30T07:05:25.181Z,2408.00
2018-08-30T07:06:25.213Z,3612.00
2018-08-30T07:07:14.820Z,5452.00
2018-08-30T07:08:14.868Z,4580.00
2018-08-30T07:09:14.774Z,3964.00
2018-08-30T07:10:14.719Z,5040.00
2018-08-30T07:11:14.679Z,7144.00
2018-08-30T07:12:14.635Z,7540.00
2018-08-30T07:13:14.597Z,7520.00
2018-08-30T07:14:14.584Z,7464.00
2018-08-30T07:15:14.524Z,7520.00
2018-08-30T07:16:14.498Z,7600.00
2018-08-30T07:17:14.455Z,7956.00
2018-08-30T07:18:14.429Z,8756.00
2018-08-30T07:19:14.410Z,8716.00
2018-08-30T07:20:14.337Z,9432.00
2018-08-30T07:21:14.356Z,7112.00
2018-08-30T07:22:14.270Z,6520.00
2018-08-30T07:23:14.237Z,7612.00
2018-08-30T07:24:14.246Z,8448.00
2018-08-30T07:25:23.767Z,8624.00
2018-08-30T07:26:14.126Z,8968.00
2018-08-30T07:27:14.085Z,9656.00
2018-08-30T07:28:14.050Z,8196.00
2018-08-30T07:29:14.016Z,8636.00
2018-08-30T07:30:13.993Z,9652.00
2018-08-30T07:31:13.935Z,10408.00
2018-08-30T07:32:13.900Z,9692.00
2018-08-30T07:33:13.865Z,9380.00
2018-08-30T07:34:13.867Z,9048.00
2018-08-30T07:35:13.903Z,9580.00
2018-08-30T07:36:13.750Z,7464.00
2018-08-30T07:37:13.716Z,5552.00
2018-08-30T07:38:13.740Z,6332.00
2018-08-30T07:39:13.677Z,7624.00
2018-08-30T07:40:13.611Z,7832.00
2018-08-30T07:41:13.599Z,6540.00
2018-08-30T07:42:13.534Z,7044.00
2018-08-30T07:43:13.493Z,7684.00
2018-08-30T07:44:13.583Z,8524.00
2018-08-30T07:45:13.432Z,11404.00
2018-08-30T07:46:13.414Z,11976.00
2018-08-30T07:47:13.397Z,12148.00
2018-08-30T07:48:13.316Z,12296.00
2018-08-30T07:49:13.282Z,14616.00
2018-08-30T07:50:13.235Z,16236.00
2018-08-30T07:51:13.233Z,17184.00
2018-08-30T07:52:13.177Z,14620.00
2018-08-30T07:53:13.138Z,12560.00
2018-08-30T07:54:13.090Z,11872.00
2018-08-30T07:55:13.052Z,12972.00
2018-08-30T07:56:13.043Z,13584.00
2018-08-30T07:57:12.988Z,16448.00
2018-08-30T07:58:12.956Z,18176.00
2018-08-30T07:59:12.918Z,16928.00
2018-08-30T08:00:12.882Z,17120.00
2018-08-30T08:01:12.865Z,18976.00
2018-08-30T08:02:12.801Z,19808.00
2018-08-30T08:03:22.792Z,20352.00
2018-08-30T08:04:12.736Z,21568.00
2018-08-30T08:05:12.726Z,18240.00
2018-08-30T08:06:12.660Z,16352.00
2018-08-30T08:07:12.672Z,14516.00
2018-08-30T08:08:12.595Z,14864.00
2018-08-30T08:09:12.559Z,18144.00
2018-08-30T08:10:12.552Z,17728.00
2018-08-30T08:11:12.494Z,17632.00
2018-08-30T08:12:12.444Z,15080.00
2018-08-30T08:13:12.410Z,30240.00
2018-08-30T08:14:12.379Z,31616.00
2018-08-30T08:15:12.343Z,28672.00
2018-08-30T08:16:12.333Z,20448.00
2018-08-30T08:17:12.280Z,32480.00
2018-08-30T08:18:12.245Z,32960.00
2018-08-30T08:19:12.282Z,31104.00
2018-08-30T08:20:12.165Z,31776.00
2018-08-30T08:21:12.154Z,31296.00
2018-08-30T08:22:12.109Z,29952.00
2018-08-30T08:23:12.074Z,22272.00
2018-08-30T08:24:12.033Z,31008.00
2018-08-30T08:25:11.999Z,27616.00
2018-08-30T08:26:11.991Z,28064.00
2018-08-30T08:27:11.928Z,15312.00
2018-08-30T08:28:11.906Z,16080.00
2018-08-30T08:29:11.899Z,31456.00
2018-08-30T08:30:11.844Z,33024.00
2018-08-30T08:31:11.818Z,33248.00
2018-08-30T08:32:11.786Z,28640.00
2018-08-30T08:33:11.733Z,32864.00
2018-08-30T08:34:11.697Z,23360.00
2018-08-30T08:35:11.668Z,23360.00
2018-08-30T08:36:11.642Z,30848.00
2018-08-30T08:37:11.632Z,33600.00
2018-08-30T08:38:11.567Z,29824.00
2018-08-30T08:39:11.541Z,20736.00
2018-08-30T08:40:11.512Z,19776.00
2018-08-30T08:41:21.852Z,24096.00
2018-08-30T08:42:11.469Z,15960.00
2018-08-30T08:43:11.410Z,16868.00
2018-08-30T08:44:11.377Z,27456.00
2018-08-30T08:45:11.348Z,30880.00
2018-08-30T08:46:11.319Z,32320.00
2018-08-30T08:47:11.286Z,33760.00
2018-08-30T08:48:11.281Z,33440.00
2018-08-30T08:49:11.453Z,33408.00
2018-08-30T08:50:11.182Z,36736.00
2018-08-30T08:51:11.176Z,39488.00
2018-08-30T08:52:11.129Z,39584.00
2018-08-30T08:53:11.117Z,23040.00
2018-08-30T08:54:11.055Z,20128.00
2018-08-30T08:55:11.022Z,18688.00
2018-08-30T08:56:10.992Z,18848.00
2018-08-30T08:57:10.967Z,18784.00
2018-08-30T08:58:10.956Z,17216.00
2018-08-30T08:59:10.993Z,15264.00
2018-08-30T09:00:10.872Z,16464.00
2018-08-30T09:01:20.982Z,14372.00
2018-08-30T09:02:10.804Z,14476.00
2018-08-30T09:03:10.797Z,15012.00
2018-08-30T09:04:10.747Z,15392.00
2018-08-30T09:05:10.716Z,14912.00
2018-08-30T09:06:10.675Z,16076.00
2018-08-30T09:07:10.673Z,16420.00
2018-08-30T09:08:10.617Z,17136.00
2018-08-30T09:09:10.605Z,18048.00
2018-08-30T09:10:10.550Z,34400.00
2018-08-30T09:11:10.516Z,25376.00
2018-08-30T09:12:10.476Z,34560.00
2018-08-30T09:13:10.444Z,34592.00
2018-08-30T09:14:10.436Z,35296.00
2018-08-30T09:15:10.376Z,36352.00
2018-08-30T09:16:10.354Z,38752.00
2018-08-30T09:17:10.322Z,41152.00
2018-08-30T09:18:10.284Z,38816.00
2018-08-30T09:19:10.281Z,28128.00
2018-08-30T09:20:10.214Z,19200.00
2018-08-30T09:21:10.188Z,28384.00
2018-08-30T09:22:10.159Z,18976.00
2018-08-30T09:23:10.167Z,19392.00
2018-08-30T09:24:10.083Z,20416.00
2018-08-30T09:25:10.076Z,35360.00
2018-08-30T09:26:10.019Z,14572.00
2018-08-30T09:27:10.022Z,11288.00
2018-08-30T09:28:09.964Z,10976.00
2018-08-30T09:29:09.938Z,11880.00
2018-08-30T09:30:09.927Z,12180.00
2018-08-30T09:31:09.869Z,12492.00
2018-08-30T09:32:09.826Z,14108.00
2018-08-30T09:33:09.794Z,16144.00
2018-08-30T09:34:09.764Z,18208.00
2018-08-30T09:35:09.753Z,18688.00
2018-08-30T09:36:09.708Z,30208.00
2018-08-30T09:37:09.672Z,36512.00
2018-08-30T09:38:09.635Z,35648.00
2018-08-30T09:39:09.601Z,34400.00
2018-08-30T09:40:09.609Z,33408.00
2018-08-30T09:41:09.542Z,13960.00
2018-08-30T09:42:09.508Z,13748.00
2018-08-30T09:43:09.476Z,14196.00
2018-08-30T09:44:09.438Z,15052.00
2018-08-30T09:45:09.404Z,15212.00
2018-08-30T09:46:09.395Z,15812.00
2018-08-30T09:47:09.339Z,16148.00
2018-08-30T09:48:09.312Z,17548.00
2018-08-30T09:49:09.280Z,38048.00
2018-08-30T09:50:09.272Z,38336.00
2018-08-30T09:51:09.217Z,36320.00
2018-08-30T09:52:09.178Z,18048.00
2018-08-30T09:53:09.147Z,13284.00
2018-08-30T09:54:09.118Z,14020.00
2018-08-30T09:55:09.108Z,15080.00
2018-08-30T09:56:09.047Z,18272.00
2018-08-30T09:57:09.172Z,36544.00
2018-08-30T09:58:08.980Z,32768.00
2018-08-30T09:59:08.946Z,37632.00
2018-08-30T10:00:08.942Z,39424.00
2018-08-30T10:01:18.953Z,42144.00
2018-08-30T10:02:08.849Z,43936.00
2018-08-30T10:03:08.817Z,45280.00
2018-08-30T10:04:08.785Z,45120.00
2018-08-30T10:05:08.773Z,45184.00
2018-08-30T10:06:08.727Z,31328.00
2018-08-30T10:07:08.702Z,24992.00
2018-08-30T10:08:08.660Z,40256.00
2018-08-30T10:09:08.623Z,18496.00
2018-08-30T10:10:08.628Z,16084.00
2018-08-30T10:11:08.571Z,14540.00
2018-08-30T10:12:08.540Z,12760.00
2018-08-30T10:13:08.530Z,11332.00
2018-08-30T10:14:08.471Z,10240.00
2018-08-30T10:15:08.464Z,9892.00
2018-08-30T10:16:08.411Z,9804.00
2018-08-30T10:17:08.381Z,9944.00
2018-08-30T10:18:08.349Z,9928.00
2018-08-30T10:19:08.324Z,10512.00
2018-08-30T10:20:15.839Z,12292.00
2018-08-30T10:21:08.255Z,14836.00
2018-08-30T10:22:08.229Z,18080.00
2018-08-30T10:23:08.200Z,20160.00
2018-08-30T10:24:08.180Z,21056.00
2018-08-30T10:25:08.123Z,21536.00
2018-08-30T10:26:08.090Z,24000.00
2018-08-30T10:27:08.060Z,23232.00
2018-08-30T10:28:08.034Z,23968.00
2018-08-30T10:29:08.020Z,23840.00
2018-08-30T10:30:07.965Z,23456.00
2018-08-30T10:31:07.934Z,23968.00
2018-08-30T10:32:07.895Z,24096.00
2018-08-30T10:33:07.861Z,23776.00
2018-08-30T10:34:07.852Z,23616.00
2018-08-30T10:35:07.796Z,22912.00
2018-08-30T10:36:07.768Z,22944.00
2018-08-30T10:37:07.868Z,25280.00
2018-08-30T10:38:07.695Z,42304.00
2018-08-30T10:39:07.685Z,43296.00
2018-08-30T10:40:07.634Z,44704.00
2018-08-30T10:41:07.607Z,45792.00
2018-08-30T10:42:07.570Z,36064.00
2018-08-30T10:43:07.534Z,39264.00
2018-08-30T10:44:07.532Z,39328.00
2018-08-30T10:45:07.463Z,36096.00
2018-08-30T10:46:07.429Z,41024.00
2018-08-30T10:47:07.401Z,29504.00
2018-08-30T10:48:07.377Z,29504.00
2018-08-30T10:49:07.366Z,46752.00
2018-08-30T10:50:07.314Z,24576.00
2018-08-30T10:51:07.277Z,46368.00
2018-08-30T10:52:07.238Z,45088.00
2018-08-30T10:53:07.214Z,43712.00
2018-08-30T10:54:07.204Z,46176.00
2018-08-30T10:55:07.149Z,35168.00
2018-08-30T10:56:07.118Z,51392.00
2018-08-30T10:57:07.087Z,45056.00
2018-08-30T10:58:15.571Z,23488.00
2018-08-30T10:59:07.046Z,15444.00
2018-08-30T11:00:06.997Z,10920.00
2018-08-30T11:01:06.965Z,9692.00
2018-08-30T11:02:06.943Z,11472.00
2018-08-30T11:03:06.897Z,14212.00
2018-08-30T11:04:06.904Z,20032.00
2018-08-30T11:05:06.837Z,18880.00
2018-08-30T11:06:06.813Z,18400.00
2018-08-30T11:07:06.790Z,25184.00
2018-08-30T11:08:06.777Z,32768.00
2018-08-30T11:09:06.717Z,27776.00
2018-08-30T11:10:06.686Z,18912.00
2018-08-30T11:11:06.659Z,18112.00
2018-08-30T11:12:06.624Z,17888.00
2018-08-30T11:13:06.840Z,18400.00
2018-08-30T11:14:06.553Z,19808.00
2018-08-30T11:15:06.522Z,21664.00
2018-08-30T11:16:06.489Z,24256.00
2018-08-30T11:17:06.459Z,28160.00
2018-08-30T11:18:06.455Z,33440.00
2018-08-30T11:19:06.407Z,48224.00
2018-08-30T11:20:06.371Z,47232.00
2018-08-30T11:21:06.336Z,46048.00
2018-08-30T11:22:06.296Z,45600.00
2018-08-30T11:23:06.293Z,44704.00
2018-08-30T11:24:06.239Z,43776.00
2018-08-30T11:25:06.206Z,43712.00
2018-08-30T11:26:06.168Z,44128.00
2018-08-30T11:27:06.136Z,42560.00
2018-08-30T11:28:06.128Z,17824.00
2018-08-30T11:29:06.073Z,17888.00
2018-08-30T11:30:06.052Z,17792.00
2018-08-30T11:31:06.022Z,16368.00
2018-08-30T11:32:05.991Z,19648.00
2018-08-30T11:33:05.984Z,43616.00
2018-08-30T11:34:05.921Z,43520.00
2018-08-30T11:35:05.889Z,16528.00
2018-08-30T11:36:17.099Z,16804.00
2018-08-30T11:37:05.837Z,44480.00
2018-08-30T11:38:05.815Z,23232.00
2018-08-30T11:39:05.764Z,48064.00
2018-08-30T11:40:05.740Z,46592.00
2018-08-30T11:41:05.766Z,45920.00
2018-08-30T11:42:05.678Z,43552.00
2018-08-30T11:43:05.670Z,41760.00
2018-08-30T11:44:05.609Z,41728.00
2018-08-30T11:45:05.578Z,42688.00
2018-08-30T11:46:05.549Z,41248.00
2018-08-30T11:47:05.521Z,14460.00
2018-08-30T11:48:05.516Z,13896.00
2018-08-30T11:49:05.465Z,13024.00
2018-08-30T11:50:05.436Z,13128.00
2018-08-30T11:51:05.457Z,13900.00
2018-08-30T11:52:05.397Z,14644.00
2018-08-30T11:53:05.337Z,15432.00
2018-08-30T11:54:05.360Z,15972.00
2018-08-30T11:55:05.280Z,16916.00
2018-08-30T11:56:15.638Z,19168.00
2018-08-30T11:57:05.235Z,22048.00
2018-08-30T11:58:05.186Z,40416.00
2018-08-30T11:59:05.157Z,26720.00
2018-08-30T12:00:05.127Z,39456.00
2018-08-30T12:01:05.111Z,31040.00
2018-08-30T12:02:05.074Z,41216.00
2018-08-30T12:03:05.031Z,39840.00
2018-08-30T12:04:04.988Z,42016.00
2018-08-30T12:05:04.960Z,42688.00
2018-08-30T12:06:04.944Z,42656.00
2018-08-30T12:07:04.997Z,42432.00
2018-08-30T12:08:04.961Z,20800.00
2018-08-30T12:09:04.833Z,19424.00
2018-08-30T12:10:04.816Z,42400.00
2018-08-30T12:11:04.894Z,41344.00
2018-08-30T12:12:04.771Z,41728.00
2018-08-30T12:13:04.718Z,40960.00
2018-08-30T12:14:04.678Z,39744.00
2018-08-30T12:15:04.650Z,39104.00
2018-08-30T12:16:04.623Z,38752.00
2018-08-30T12:17:04.618Z,38048.00
2018-08-30T12:18:04.555Z,38848.00
2018-08-30T12:19:04.546Z,38624.00
2018-08-30T12:20:04.498Z,14172.00
2018-08-30T12:21:04.468Z,12736.00
2018-08-30T12:22:04.444Z,14508.00
2018-08-30T12:23:04.436Z,38624.00